Time;durP1;ratioP1;P1;durP2;ratioP2;P2;SDS_P1;SDS_P2;PMS_P1;PMS_P2;Temp;Humidity;BMP_temperature;BMP_pressure;BME280_temperature;BME280_humidity;BME280_pressure;Samples;Min_cycle;Max_cycle;Signal;HPM_P1;HPM_P2
2023/09/15 00:01:44;;;;;;;6.35;5.75;;;;;;;19.50;79.73;95872.78;5037890;28;20201;-85
2023/09/15 00:04:11;;;;;;;6.20;5.68;;;;;;;19.50;79.42;95861.53;5046069;28;20244;-85
2023/09/15 00:06:39;;;;;;;7.07;6.25;;;;;;;19.50;79.25;95853.69;5050472;28;20218;-85
2023/09/15 00:09:14;;;;;;;6.18;5.68;;;;;;;19.47;79.26;95844.47;5042497;28;20218;-85
2023/09/15 00:11:42;;;;;;;6.22;5.72;;;;;;;19.39;79.90;95865.69;5030990;28;20301;-85
2023/09/15 00:14:10;;;;;;;6.22;5.55;;;;;;;19.38;79.96;95871.16;5030317;28;20230;-85
2023/09/15 00:16:38;;;;;;;6.10;5.55;;;;;;;19.40;80.33;95867.28;5030074;28;20205;-85
2023/09/15 00:19:06;;;;;;;6.53;5.90;;;;;;;19.36;80.10;95863.53;5038229;28;20217;-84
2023/09/15 00:21:33;;;;;;;6.40;5.90;;;;;;;19.29;80.51;95868.06;5046323;28;20214;-85
2023/09/15 00:23:59;;;;;;;6.43;5.82;;;;;;;19.26;81.28;95879.72;5050112;28;20677;-85
2023/09/15 00:26:26;;;;;;;6.18;5.68;;;;;;;19.28;81.42;95893.38;5033438;28;20202;-84
2023/09/15 00:28:54;;;;;;;6.40;5.80;;;;;;;19.32;80.97;95881.47;5030195;28;20229;-85
2023/09/15 00:31:21;;;;;;;6.10;5.60;;;;;;;19.29;80.84;95874.06;5029874;28;20695;-84
2023/09/15 00:33:48;;;;;;;6.55;5.95;;;;;;;19.24;81.73;95889.59;5029071;28;20218;-85
2023/09/15 00:36:14;;;;;;;6.18;5.65;;;;;;;19.37;80.96;95877.38;5048181;28;20296;-84
2023/09/15 00:38:40;;;;;;;6.72;6.03;;;;;;;19.39;80.58;95878.75;5049298;28;20225;-85
2023/09/15 00:41:07;;;;;;;6.75;6.15;;;;;;;19.39;80.96;95876.16;5039754;28;20197;-85
2023/09/15 00:43:33;;;;;;;5.93;5.43;;;;;;;19.32;81.07;95881.47;5012380;28;20225;-84
2023/09/15 00:46:03;;;;;;;6.43;5.93;;;;;;;19.33;81.42;95882.25;5009742;28;20206;-85
2023/09/15 00:48:29;;;;;;;6.13;5.63;;;;;;;19.30;81.66;95886.09;5009910;28;20223;-84
2023/09/15 00:50:56;;;;;;;6.50;6.00;;;;;;;19.27;81.74;95890.97;5023937;28;20202;-84
2023/09/15 00:53:23;;;;;;;6.10;5.60;;;;;;;19.24;81.97;95892.22;5048867;28;20226;-84
2023/09/15 00:55:51;;;;;;;6.85;6.20;;;;;;;19.22;82.31;95898.69;5049045;28;20202;-85
2023/09/15 00:58:19;;;;;;;6.53;5.90;;;;;;;19.11;83.17;95915.09;5045769;28;20327;-84
2023/09/15 01:00:46;;;;;;;6.15;5.55;;;;;;;19.13;83.58;95918.28;5029688;28;20206;-85
2023/09/15 01:03:18;;;;;;;6.97;5.40;;;;;;;19.28;82.99;95909.03;5029620;28;20659;-85
2023/09/15 01:05:46;;;;;;;6.50;5.68;;;;;;;19.42;82.52;95891.38;5029275;28;20621;-85
2023/09/15 01:08:13;;;;;;;5.72;5.22;;;;;;;19.51;81.69;95882.22;5043875;28;20249;-85
2023/09/15 01:10:39;;;;;;;6.43;5.80;;;;;;;19.36;82.26;95887.03;5029298;28;20229;-84
2023/09/15 01:13:07;;;;;;;6.68;6.18;;;;;;;19.26;82.14;95890.19;5028919;28;20703;-85
2023/09/15 01:15:38;;;;;;;6.40;5.90;;;;;;;19.16;82.74;95895.16;5028905;28;20234;-85
2023/09/15 01:18:14;;;;;;;6.55;5.93;;;;;;;18.97;82.98;95894.41;5028346;28;20241;-84
2023/09/15 01:21:21;;;;;;;7.30;6.60;;;;;;;18.82;85.02;95921.91;5028993;28;20202;-84
2023/09/15 01:24:13;;;;;;;7.25;6.65;;;;;;;18.87;84.73;95919.41;5022370;28;20201;-84
2023/09/15 01:26:49;;;;;;;6.68;6.05;;;;;;;18.84;85.35;95928.50;5027884;28;20726;-85
2023/09/15 01:29:40;;;;;;;6.55;5.85;;;;;;;18.96;84.89;95921.53;5029184;28;20222;-85
2023/09/15 01:32:09;;;;;;;6.38;5.78;;;;;;;19.05;84.53;95916.00;5028768;28;20198;-85
2023/09/15 01:34:36;;;;;;;6.50;6.00;;;;;;;19.08;84.10;95905.91;5029007;28;20229;-84
2023/09/15 01:37:03;;;;;;;7.20;6.38;;;;;;;18.98;84.07;95911.66;5028771;28;20191;-84
2023/09/15 01:39:30;;;;;;;6.45;5.95;;;;;;;18.93;84.57;95918.53;5026767;28;20727;-85
2023/09/15 01:41:57;;;;;;;7.45;6.85;;;;;;;18.91;84.72;95916.16;5048209;28;20208;-85
2023/09/15 01:44:23;;;;;;;6.88;6.28;;;;;;;18.90;85.05;95926.81;5028523;28;20198;-85
2023/09/15 01:46:51;;;;;;;7.10;6.50;;;;;;;18.79;85.81;95927.56;5028464;28;20209;-85
2023/09/15 01:49:19;;;;;;;8.38;6.82;;;;;;;18.79;86.03;95940.59;5028302;28;20252;-84
2023/09/15 01:51:46;;;;;;;6.95;6.38;;;;;;;18.77;85.97;95938.22;5028507;28;20851;-84
2023/09/15 01:54:13;;;;;;;6.97;6.38;;;;;;;18.84;85.69;95933.72;5028268;28;20233;-84
2023/09/15 01:56:40;;;;;;;7.68;6.97;;;;;;;18.86;85.27;95923.84;5043428;28;20202;-85
2023/09/15 01:59:07;;;;;;;7.57;6.95;;;;;;;18.82;85.45;95932.34;5037621;28;20210;-83
2023/09/15 02:01:33;;;;;;;7.45;6.68;;;;;;;18.94;85.31;95933.19;5028492;28;20206;-84
2023/09/15 02:04:01;;;;;;;7.13;6.53;;;;;;;18.94;85.13;95923.56;5028733;28;20687;-84
2023/09/15 02:06:27;;;;;;;6.75;6.22;;;;;;;19.03;84.96;95918.84;5032950;28;20206;-85
2023/09/15 02:08:54;;;;;;;8.43;6.93;;;;;;;18.89;84.93;95912.97;5034802;28;20213;-84
2023/09/15 02:11:20;;;;;;;7.03;6.43;;;;;;;18.80;85.78;95921.31;5038253;28;20205;-84
2023/09/15 02:13:47;;;;;;;7.60;7.00;;;;;;;18.71;86.45;95928.63;5047275;28;20223;-84
2023/09/15 02:16:13;;;;;;;7.25;6.65;;;;;;;18.59;87.20;95943.44;5054914;28;20201;-84
2023/09/15 02:18:40;;;;;;;7.82;7.13;;;;;;;18.55;87.63;95943.03;5054377;28;20221;-84
2023/09/15 02:21:08;;;;;;;7.80;6.97;;;;;;;18.68;87.40;95941.31;5055133;28;20204;-84
2023/09/15 02:23:34;;;;;;;8.38;7.13;;;;;;;18.60;87.25;95935.41;5054593;28;20204;-85
2023/09/15 02:26:03;;;;;;;7.55;6.88;;;;;;;18.48;88.28;95951.94;5041340;28;20201;-85
2023/09/15 02:28:29;;;;;;;7.78;7.13;;;;;;;18.34;89.25;95963.53;5046721;28;20737;-84
2023/09/15 02:30:56;;;;;;;8.98;8.15;;;;;;;18.28;89.84;95971.19;5054728;28;20578;-85
2023/09/15 02:33:23;;;;;;;9.68;7.75;;;;;;;18.27;90.52;95981.84;5046582;28;20698;-85
2023/09/15 02:35:50;;;;;;;8.48;7.78;;;;;;;18.31;90.44;95990.81;5026627;28;20194;-85
2023/09/15 02:38:18;;;;;;;8.82;8.02;;;;;;;18.19;91.26;95997.75;5034630;28;20742;-84
2023/09/15 02:40:44;;;;;;;8.70;8.00;;;;;;;18.26;90.99;95996.69;5034934;28;20197;-85
2023/09/15 02:43:10;;;;;;;9.27;8.48;;;;;;;18.23;91.18;95998.91;5027053;28;20211;-84
2023/09/15 02:45:37;;;;;;;9.55;8.25;;;;;;;18.26;91.58;96003.72;5054706;28;20209;-85
2023/09/15 02:48:04;;;;;;;9.63;8.73;;;;;;;18.23;91.48;95999.72;5054866;28;20221;-84
2023/09/15 02:50:32;;;;;;;10.30;8.88;;;;;;;18.20;91.65;96001.94;5055005;28;20193;-85
2023/09/15 02:53:00;;;;;;;9.68;8.77;;;;;;;18.22;91.72;96003.34;5054256;28;20201;-85
2023/09/15 02:55:27;;;;;;;9.02;8.23;;;;;;;18.23;92.08;95997.13;5055336;28;20205;-84
2023/09/15 02:57:55;;;;;;;9.05;8.25;;;;;;;18.35;91.96;96001.63;5053770;28;20232;-84
2023/09/15 03:00:21;;;;;;;8.85;8.02;;;;;;;18.36;91.72;95990.97;5042501;28;20205;-85
2023/09/15 03:02:48;;;;;;;9.95;8.95;;;;;;;18.26;91.83;95993.28;5054333;28;20209;-84
2023/09/15 03:05:15;;;;;;;10.23;9.32;;;;;;;18.23;91.95;96004.94;5054607;28;20200;-85
2023/09/15 03:07:42;;;;;;;10.43;9.45;;;;;;;18.25;92.07;96002.13;5054327;28;20222;-85
2023/09/15 03:10:09;;;;;;;9.85;9.05;;;;;;;18.31;91.71;96003.84;5037264;28;20237;-85
2023/09/15 03:12:37;;;;;;;10.90;9.70;;;;;;;18.24;92.03;96009.13;5034407;28;20205;-84
2023/09/15 03:15:06;;;;;;;10.63;9.68;;;;;;;18.21;92.30;95999.13;5033998;28;20222;-85
2023/09/15 03:17:33;;;;;;;10.55;9.65;;;;;;;18.13;93.11;96011.63;5049123;28;20209;-85
2023/09/15 03:20:09;;;;;;;10.07;9.18;;;;;;;18.23;92.93;96006.75;5051775;28;20208;-85
2023/09/15 03:22:35;;;;;;;11.32;10.23;;;;;;;18.25;92.39;96002.91;5051471;28;20205;-85
2023/09/15 03:25:02;;;;;;;10.27;9.40;;;;;;;18.24;92.29;95997.91;5046123;28;20194;-84
2023/09/15 03:27:29;;;;;;;11.35;10.18;;;;;;;18.30;91.91;95997.03;5031294;28;20205;-84
2023/09/15 03:29:57;;;;;;;11.13;10.13;;;;;;;18.30;91.55;95981.38;5030886;28;20206;-85
2023/09/15 03:32:23;;;;;;;10.98;9.90;;;;;;;18.24;91.84;95984.88;5029367;28;20202;-85
2023/09/15 03:34:53;;;;;;;11.73;10.63;;;;;;;18.20;92.20;95988.91;5050702;28;20229;-85
2023/09/15 03:37:19;;;;;;;11.43;10.40;;;;;;;18.10;93.22;95999.00;5050988;28;20578;-84
2023/09/15 03:39:45;;;;;;;12.48;11.38;;;;;;;18.04;94.10;96015.53;5051145;28;20206;-85
2023/09/15 03:42:13;;;;;;;13.73;12.43;;;;;;;17.92;95.41;96029.22;5048255;28;20208;-84
2023/09/15 03:44:39;;;;;;;12.20;11.10;;;;;;;17.80;96.54;96041.31;5030396;28;20201;-85
2023/09/15 03:47:08;;;;;;;13.77;12.45;;;;;;;17.83;96.79;96045.31;5031079;28;20229;-85
2023/09/15 03:49:35;;;;;;;14.15;12.75;;;;;;;17.81;96.90;96047.34;5045203;28;20705;-84
2023/09/15 03:52:01;;;;;;;13.45;12.15;;;;;;;17.71;97.80;96052.19;5050548;28;20205;-85
2023/09/15 03:54:28;;;;;;;14.63;13.10;;;;;;;17.68;98.21;96060.44;5050521;28;20217;-84
2023/09/15 03:56:55;;;;;;;14.70;13.23;;;;;;;17.54;99.13;96072.69;5037115;28;20285;-84
2023/09/15 03:59:21;;;;;;;13.77;12.40;;;;;;;17.56;100.00;96076.69;5030843;28;20233;-84
2023/09/15 04:01:48;;;;;;;15.82;13.10;;;;;;;17.51;100.00;96076.50;5030798;28;20256;-85
2023/09/15 04:04:16;;;;;;;14.65;13.07;;;;;;;17.50;100.00;96085.34;5033731;28;20531;-85
2023/09/15 04:06:43;;;;;;;17.58;13.45;;;;;;;17.38;100.00;96089.56;5045875;28;20213;-85
2023/09/15 04:09:12;;;;;;;15.98;13.63;;;;;;;17.38;100.00;96099.19;5042051;28;20214;-84
2023/09/15 04:11:38;;;;;;;15.15;13.55;;;;;;;17.46;100.00;96098.97;5030501;28;20229;-85
2023/09/15 04:14:05;;;;;;;15.55;13.95;;;;;;;17.55;100.00;96082.91;5030045;28;20217;-84
2023/09/15 04:16:31;;;;;;;16.15;14.48;;;;;;;17.43;100.00;96089.78;5030395;28;20208;-85
2023/09/15 04:18:58;;;;;;;15.45;13.85;;;;;;;17.36;100.00;96094.19;5029341;28;20258;-85
2023/09/15 04:21:25;;;;;;;15.13;13.60;;;;;;;17.32;100.00;96105.25;5041621;28;20209;-84
2023/09/15 04:23:52;;;;;;;15.15;13.55;;;;;;;17.25;100.00;96115.66;5049773;28;20205;-84
2023/09/15 04:26:18;;;;;;;15.32;13.82;;;;;;;17.13;100.00;96123.28;5033233;28;20203;-85
2023/09/15 04:28:45;;;;;;;17.20;14.68;;;;;;;17.12;100.00;96145.13;5022330;28;20221;-85
2023/09/15 04:31:11;;;;;;;17.98;14.10;;;;;;;17.12;100.00;96129.53;5030552;28;20202;-85
2023/09/15 04:33:38;;;;;;;16.00;14.40;;;;;;;17.20;100.00;96131.09;5030057;28;20210;-84
2023/09/15 04:36:05;;;;;;;16.80;15.00;;;;;;;17.14;100.00;96137.09;5028817;28;20213;-84
2023/09/15 04:38:33;;;;;;;16.92;15.15;;;;;;;17.19;100.00;96142.50;5050091;28;20248;-84
2023/09/15 04:40:59;;;;;;;17.50;14.70;;;;;;;17.15;100.00;96129.09;5050725;28;20201;-84
2023/09/15 04:43:26;;;;;;;16.15;14.55;;;;;;;17.24;100.00;96121.88;5037867;28;20713;-84
2023/09/15 04:45:56;;;;;;;16.90;15.27;;;;;;;17.20;100.00;96131.09;5031113;28;20225;-84
2023/09/15 04:48:23;;;;;;;15.65;14.05;;;;;;;17.12;100.00;96137.31;5030759;28;20222;-84
2023/09/15 04:50:49;;;;;;;16.42;14.57;;;;;;;17.09;100.00;96139.53;5029998;28;20209;-84
2023/09/15 04:53:16;;;;;;;17.55;15.75;;;;;;;17.02;100.00;96146.53;5038685;28;20208;-84
2023/09/15 04:55:44;;;;;;;16.88;15.27;;;;;;;17.00;100.00;96146.72;5046714;28;20214;-85
2023/09/15 04:58:11;;;;;;;16.80;15.02;;;;;;;17.04;100.00;96153.13;5030320;28;20619;-84
2023/09/15 05:00:37;;;;;;;18.35;15.82;;;;;;;17.06;100.00;96160.75;5030254;28;20204;-83
2023/09/15 05:03:04;;;;;;;17.15;15.35;;;;;;;17.08;100.00;96158.75;5030842;28;20202;-84
2023/09/15 05:05:31;;;;;;;17.65;15.40;;;;;;;17.11;100.00;96159.16;5030250;28;20210;-85
2023/09/15 05:07:57;;;;;;;18.90;14.40;;;;;;;17.25;100.00;96155.50;5030769;28;20235;-84
2023/09/15 05:10:24;;;;;;;17.13;15.40;;;;;;;17.18;100.00;96149.50;5045905;28;20202;-84
2023/09/15 05:12:51;;;;;;;18.08;16.23;;;;;;;17.00;100.00;96164.16;5049753;28;20201;-84
2023/09/15 05:15:18;;;;;;;17.55;15.52;;;;;;;16.92;100.00;96165.97;5049848;28;20228;-84
2023/09/15 05:17:45;;;;;;;16.75;15.05;;;;;;;17.02;100.00;96165.53;5048926;28;20593;-84
2023/09/15 05:20:12;;;;;;;16.58;14.88;;;;;;;16.95;100.00;96161.34;5049464;28;20225;-84
2023/09/15 05:22:38;;;;;;;16.15;14.52;;;;;;;16.97;100.00;96173.16;5034294;28;20194;-84
2023/09/15 05:25:06;;;;;;;17.13;14.73;;;;;;;17.04;100.00;96165.34;5029087;28;20197;-84
2023/09/15 05:27:33;;;;;;;16.48;14.77;;;;;;;16.83;100.00;96174.97;5049506;28;20201;-84
2023/09/15 05:30:00;;;;;;;16.55;14.73;;;;;;;16.88;100.00;96192.56;5049728;28;20201;-84
2023/09/15 05:32:27;;;;;;;17.17;15.05;;;;;;;16.93;100.00;96193.56;5049580;28;20202;-84
2023/09/15 05:34:53;;;;;;;16.00;14.30;;;;;;;17.07;100.00;96185.75;5049024;28;20225;-84
2023/09/15 05:37:20;;;;;;;15.90;14.18;;;;;;;17.11;100.00;96176.56;5049624;28;20212;-84
2023/09/15 05:39:46;;;;;;;15.88;14.23;;;;;;;17.02;100.00;96165.53;5049085;28;20208;-84
2023/09/15 05:42:13;;;;;;;15.43;13.75;;;;;;;17.00;100.00;96179.75;5042420;28;20694;-84
2023/09/15 05:44:39;;;;;;;17.23;15.43;;;;;;;17.04;100.00;96175.75;5047241;28;20212;-85
2023/09/15 05:47:07;;;;;;;17.40;14.95;;;;;;;17.15;100.00;96183.72;5049055;28;20216;-84
2023/09/15 05:49:33;;;;;;;18.90;16.90;;;;;;;17.21;100.00;96179.53;5048794;28;20225;-84
2023/09/15 05:52:00;;;;;;;23.33;20.85;;;;;;;17.18;100.00;96182.53;5048845;28;20214;-85
2023/09/15 05:54:27;;;;;;;17.38;15.68;;;;;;;17.12;100.00;96178.97;5048635;28;20235;-84
2023/09/15 05:56:53;;;;;;;17.63;15.75;;;;;;;17.18;100.00;96188.53;5034957;28;20737;-84
2023/09/15 05:59:20;;;;;;;18.45;15.43;;;;;;;17.35;100.00;96175.09;5048111;28;20231;-84
2023/09/15 06:01:47;;;;;;;15.10;13.60;;;;;;;17.33;100.00;96157.06;5049101;28;20228;-84
2023/09/15 06:04:15;;;;;;;16.80;15.10;;;;;;;17.25;100.00;96162.50;5048702;28;20197;-84
2023/09/15 06:06:42;;;;;;;17.10;15.40;;;;;;;17.29;100.00;96165.50;5048935;28;20216;-84
2023/09/15 06:09:09;;;;;;;17.20;14.93;;;;;;;17.22;100.00;96160.31;5040722;28;20214;-85
2023/09/15 06:11:35;;;;;;;15.43;13.77;;;;;;;17.33;100.00;96157.06;5028820;28;20214;-84
2023/09/15 06:14:02;;;;;;;16.90;14.20;;;;;;;17.40;100.00;96149.25;5037432;28;20659;-83
2023/09/15 06:16:28;;;;;;;16.17;14.52;;;;;;;17.33;100.00;96146.66;5048994;28;20202;-85
2023/09/15 06:18:55;;;;;;;16.63;14.82;;;;;;;17.19;100.00;96158.09;5035780;28;20711;-85
2023/09/15 06:21:22;;;;;;;17.23;15.48;;;;;;;17.19;100.00;96171.91;5020722;28;20589;-84
2023/09/15 06:23:49;;;;;;;16.52;14.82;;;;;;;17.24;100.00;96173.94;5028418;28;20206;-84
2023/09/15 06:26:15;;;;;;;17.52;15.65;;;;;;;17.21;100.00;96169.91;5028379;28;20740;-84
2023/09/15 06:28:42;;;;;;;17.45;15.65;;;;;;;17.27;100.00;96184.72;5028064;28;20222;-84
2023/09/15 06:31:08;;;;;;;16.50;14.80;;;;;;;17.46;100.00;96171.88;5046663;28;20209;-84
2023/09/15 06:33:34;;;;;;;17.02;15.32;;;;;;;17.56;100.00;96160.00;5048559;28;20205;-85
2023/09/15 06:36:01;;;;;;;17.63;15.73;;;;;;;17.57;100.00;96143.38;5048060;28;20655;-84
2023/09/15 06:38:31;;;;;;;17.17;15.48;;;;;;;17.53;100.00;96150.00;5048296;28;20229;-85
2023/09/15 06:40:57;;;;;;;17.73;15.85;;;;;;;17.50;100.00;96149.63;5048199;28;20648;-84
2023/09/15 06:43:24;;;;;;;18.58;16.67;;;;;;;17.56;100.00;96138.38;5035141;28;20668;-84
2023/09/15 06:45:50;;;;;;;17.10;15.40;;;;;;;17.57;100.00;96142.56;5033953;28;20205;-84
2023/09/15 06:48:17;;;;;;;17.02;15.32;;;;;;;17.58;100.00;96138.97;5048305;28;20226;-84
2023/09/15 06:50:43;;;;;;;17.70;15.85;;;;;;;17.56;100.00;96139.19;5047753;28;20662;-85
2023/09/15 06:53:10;;;;;;;16.77;15.00;;;;;;;17.61;100.00;96138.56;5046542;28;20198;-84
2023/09/15 06:55:37;;;;;;;16.27;14.68;;;;;;;17.63;100.00;96133.94;5032243;28;20253;-85
2023/09/15 06:58:04;;;;;;;16.60;14.98;;;;;;;17.72;100.00;96142.34;5031967;28;20594;-85
2023/09/15 07:00:30;;;;;;;17.27;15.57;;;;;;;17.74;100.00;96122.91;5031981;28;20202;-85
2023/09/15 07:02:57;;;;;;;16.75;14.93;;;;;;;17.73;100.00;96117.91;5044875;28;20736;-84
2023/09/15 07:05:23;;;;;;;16.73;14.77;;;;;;;17.81;100.00;96121.06;5051192;28;20206;-84
2023/09/15 07:07:50;;;;;;;16.60;14.18;;;;;;;17.74;100.00;96101.25;5051794;28;20222;-84
2023/09/15 07:10:17;;;;;;;15.68;14.18;;;;;;;17.82;100.00;96109.66;5034519;28;20201;-85
2023/09/15 07:12:44;;;;;;;14.15;12.80;;;;;;;17.85;100.00;96096.22;5031686;28;20205;-84
2023/09/15 07:15:13;;;;;;;15.60;14.10;;;;;;;17.88;100.00;96079.38;5031516;28;20222;-85
2023/09/15 07:17:40;;;;;;;14.88;13.38;;;;;;;17.92;100.00;96080.53;5023685;28;20217;-84
2023/09/15 07:20:07;;;;;;;14.57;13.23;;;;;;;17.99;100.00;96067.47;5051081;28;20212;-84
2023/09/15 07:22:34;;;;;;;14.77;13.32;;;;;;;18.09;100.00;96054.78;5051815;28;20205;-84
2023/09/15 07:25:00;;;;;;;13.82;12.30;;;;;;;18.18;100.00;96049.06;5046381;28;20190;-85
2023/09/15 07:27:27;;;;;;;14.27;12.88;;;;;;;18.18;100.00;96056.91;5031323;28;20206;-85
2023/09/15 07:29:54;;;;;;;13.80;12.50;;;;;;;18.21;99.53;96040.03;5031600;28;20206;-85
2023/09/15 07:32:21;;;;;;;13.85;12.55;;;;;;;18.22;99.59;96041.63;5031882;28;20682;-84
2023/09/15 07:34:48;;;;;;;14.60;13.20;;;;;;;18.16;99.77;96037.25;5040092;28;20279;-85
2023/09/15 07:37:15;;;;;;;16.73;15.13;;;;;;;18.20;100.00;96049.66;5051142;28;20297;-84
2023/09/15 07:39:41;;;;;;;14.35;12.95;;;;;;;18.24;99.75;96043.03;5051225;28;20221;-84
2023/09/15 07:42:08;;;;;;;14.57;12.43;;;;;;;18.26;99.49;96045.41;5049168;28;20197;-84
2023/09/15 07:44:36;;;;;;;13.93;12.52;;;;;;;18.43;97.56;96025.63;5031784;28;20201;-85
2023/09/15 07:47:06;;;;;;;12.70;11.45;;;;;;;18.50;97.76;96036.75;5032930;28;20248;-84
2023/09/15 07:49:32;;;;;;;12.95;11.65;;;;;;;18.52;95.09;96000.03;5030574;28;20229;-84
2023/09/15 07:51:59;;;;;;;12.07;10.98;;;;;;;18.55;95.68;96003.03;5050091;28;20206;-84
2023/09/15 07:54:25;;;;;;;11.20;10.20;;;;;;;18.63;95.63;96008.00;5037839;28;20206;-84
2023/09/15 07:56:52;;;;;;;11.63;10.52;;;;;;;18.58;94.22;95986.16;5031558;28;20592;-84
2023/09/15 07:59:18;;;;;;;12.90;10.57;;;;;;;18.58;94.60;95993.97;5031440;28;20599;-85
2023/09/15 08:01:45;;;;;;;13.10;11.75;;;;;;;18.52;94.54;95993.03;5031809;28;20206;-84
2023/09/15 08:04:12;;;;;;;12.25;11.13;;;;;;;18.56;93.69;95988.97;5030961;28;20202;-84
2023/09/15 08:06:39;;;;;;;11.40;10.30;;;;;;;18.59;93.89;95993.78;5037912;28;20213;-84
2023/09/15 08:09:05;;;;;;;12.27;10.98;;;;;;;18.67;94.17;95997.91;5043476;28;20222;-84
2023/09/15 08:11:34;;;;;;;12.00;9.90;;;;;;;18.74;93.29;95985.59;5029543;28;20206;-84
2023/09/15 08:14:00;;;;;;;11.00;10.00;;;;;;;18.83;93.39;95980.91;5025273;28;20608;-84
2023/09/15 08:16:30;;;;;;;11.10;10.05;;;;;;;18.86;91.14;95949.94;5031049;28;20749;-84
2023/09/15 08:18:58;;;;;;;11.25;10.15;;;;;;;18.90;92.37;95966.75;5030036;28;20226;-85
2023/09/15 08:21:26;;;;;;;11.77;9.90;;;;;;;19.05;92.14;95971.59;5030947;28;20552;-84
2023/09/15 08:23:52;;;;;;;11.85;10.65;;;;;;;19.17;89.60;95933.28;5046443;28;20204;-84
2023/09/15 08:26:19;;;;;;;11.38;10.27;;;;;;;19.25;88.75;95919.91;5034288;28;20194;-84
2023/09/15 08:28:46;;;;;;;11.57;10.38;;;;;;;19.22;88.98;95912.53;5030852;28;20218;-84
2023/09/15 08:31:12;;;;;;;11.40;10.38;;;;;;;19.31;88.58;95921.66;5030676;28;20579;-84
2023/09/15 08:33:38;;;;;;;11.23;10.13;;;;;;;19.38;88.03;95905.88;5030569;28;20202;-84
2023/09/15 08:36:05;;;;;;;11.10;10.10;;;;;;;19.53;87.79;95911.50;5030770;28;20269;-84
2023/09/15 08:38:33;;;;;;;11.20;10.07;;;;;;;20.03;85.42;95874.50;5033782;28;20221;-85
2023/09/15 08:41:03;;;;;;;11.63;10.45;;;;;;;20.45;80.40;95773.16;5050181;28;20209;-84
2023/09/15 08:43:30;;;;;;;10.80;9.80;;;;;;;20.39;80.23;95765.47;5036839;28;20571;-84
2023/09/15 08:45:57;;;;;;;10.73;9.73;;;;;;;20.22;80.16;95758.28;5030590;28;20207;-84
2023/09/15 08:48:26;;;;;;;10.43;9.43;;;;;;;20.24;81.56;95784.22;5018664;28;20242;-84
2023/09/15 08:50:53;;;;;;;10.20;9.20;;;;;;;20.43;81.90;95796.13;5029737;28;20202;-84
2023/09/15 08:53:20;;;;;;;9.50;8.70;;;;;;;21.00;80.14;95757.63;5029693;28;20194;-85
2023/09/15 08:55:48;;;;;;;10.45;9.55;;;;;;;21.47;77.75;95706.75;5042313;28;20221;-84
2023/09/15 08:58:15;;;;;;;9.32;8.48;;;;;;;21.60;75.94;95667.09;5049802;28;20232;-84
2023/09/15 09:00:42;;;;;;;9.75;8.85;;;;;;;21.53;74.45;95635.06;5049985;28;20197;-83
2023/09/15 09:03:12;;;;;;;10.63;8.88;;;;;;;21.36;75.64;95658.66;5049349;28;20240;-84
2023/09/15 09:05:39;;;;;;;9.98;9.07;;;;;;;21.45;74.09;95645.94;5049708;28;20296;-84
2023/09/15 09:08:06;;;;;;;9.45;8.55;;;;;;;21.47;73.17;95599.34;5027726;28;20226;-84
2023/09/15 09:10:33;;;;;;;10.32;9.43;;;;;;;21.42;73.66;95615.00;5017020;28;20205;-84
2023/09/15 09:13:03;;;;;;;10.50;9.15;;;;;;;21.56;73.06;95621.44;5049509;28;20209;-84
2023/09/15 09:15:33;;;;;;;9.63;8.82;;;;;;;22.05;71.85;95603.94;5049128;28;20224;-84
2023/09/15 09:18:00;;;;;;;10.10;9.30;;;;;;;22.68;69.09;95527.03;5048916;28;20264;-85
2023/09/15 09:20:27;;;;;;;9.32;8.52;;;;;;;22.93;67.10;95449.47;5050147;28;20205;-84
2023/09/15 09:22:55;;;;;;;9.73;7.85;;;;;;;23.02;64.66;95361.25;5049986;28;20209;-85
2023/09/15 09:25:28;;;;;;;8.60;7.90;;;;;;;22.83;64.32;95350.47;5041508;28;20663;-85
2023/09/15 09:27:55;;;;;;;8.57;7.78;;;;;;;22.88;65.31;95381.19;5040357;28;20221;-84
2023/09/15 09:30:26;;;;;;;8.82;8.02;;;;;;;23.04;64.96;95390.69;5048769;28;20266;-85
2023/09/15 09:32:52;;;;;;;8.02;7.43;;;;;;;23.32;63.21;95329.75;5049209;28;20202;-85
2023/09/15 09:35:19;;;;;;;8.10;7.40;;;;;;;23.39;62.58;95311.91;5049206;28;20232;-84
2023/09/15 09:37:45;;;;;;;11.13;10.13;;;;;;;23.41;62.64;95303.75;5048757;28;20231;-84
2023/09/15 09:40:12;;;;;;;9.02;8.20;;;;;;;23.55;62.92;95325.06;5049167;28;20209;-84
2023/09/15 09:42:38;;;;;;;7.88;7.13;;;;;;;23.81;63.22;95336.34;5041707;28;20722;-84
2023/09/15 09:45:06;;;;;;;8.15;7.45;;;;;;;24.02;62.32;95307.13;5027165;28;20236;-85
2023/09/15 09:47:34;;;;;;;8.25;7.45;;;;;;;23.86;61.61;95268.75;5049012;28;20220;-85
2023/09/15 09:50:04;;;;;;;8.13;7.43;;;;;;;23.86;61.17;95252.97;5049180;28;20205;-84
2023/09/15 09:52:31;;;;;;;8.68;7.70;;;;;;;23.79;61.09;95241.16;5029754;28;20218;-84
2023/09/15 09:54:57;;;;;;;7.70;7.00;;;;;;;23.68;61.78;95270.09;5029433;28;20248;-84
2023/09/15 09:57:25;;;;;;;7.57;6.90;;;;;;;23.59;61.55;95265.66;5028904;28;20230;-84
2023/09/15 09:59:53;;;;;;;7.30;6.60;;;;;;;23.72;62.37;95291.41;5037435;28;20212;-84
2023/09/15 10:02:20;;;;;;;7.30;6.70;;;;;;;23.89;61.66;95267.41;5048825;28;20201;-85
2023/09/15 10:04:48;;;;;;;7.47;6.88;;;;;;;23.82;61.29;95248.53;5025459;28;20233;-85
2023/09/15 10:07:15;;;;;;;8.07;7.38;;;;;;;23.88;61.24;95250.84;5024788;28;20198;-85
2023/09/15 10:09:42;;;;;;;6.95;6.30;;;;;;;23.95;62.10;95285.56;5016036;28;20218;-85
2023/09/15 10:12:11;;;;;;;7.18;6.55;;;;;;;23.76;61.08;95240.66;5009185;28;20208;-85
2023/09/15 10:14:39;;;;;;;6.70;6.20;;;;;;;23.67;62.40;95275.63;5008628;28;20213;-84
2023/09/15 10:17:05;;;;;;;6.93;6.32;;;;;;;23.60;60.47;95202.31;5046321;28;20226;-84
2023/09/15 10:19:32;;;;;;;6.45;5.97;;;;;;;23.55;60.59;95198.91;5048680;28;20221;-84
2023/09/15 10:22:01;;;;;;;7.43;6.72;;;;;;;23.39;62.77;95296.13;5048474;28;20570;-84
2023/09/15 10:24:27;;;;;;;6.90;6.30;;;;;;;23.48;62.23;95279.81;5047745;28;20295;-85
2023/09/15 10:26:57;;;;;;;6.88;6.38;;;;;;;23.64;60.40;95213.09;5030590;28;20201;-85
2023/09/15 10:29:30;;;;;;;7.05;6.35;;;;;;;23.42;61.50;95245.69;5032521;28;20221;-85
2023/09/15 10:31:58;;;;;;;7.47;6.78;;;;;;;23.47;61.84;95252.00;5040111;28;20704;-85
2023/09/15 10:34:26;;;;;;;6.50;6.00;;;;;;;23.69;61.49;95253.28;5052132;28;20209;-84
2023/09/15 10:36:53;;;;;;;6.53;6.03;;;;;;;23.75;62.21;95275.88;5052335;28;20236;-84
2023/09/15 10:39:22;;;;;;;6.95;6.35;;;;;;;23.83;60.61;95206.19;5041434;28;20218;-85
2023/09/15 10:41:49;;;;;;;6.18;5.68;;;;;;;23.78;60.20;95187.78;5032279;28;20671;-83
2023/09/15 10:44:15;;;;;;;5.80;5.40;;;;;;;23.96;62.09;95260.84;5032216;28;20202;-84
2023/09/15 10:46:43;;;;;;;6.68;6.07;;;;;;;24.11;60.49;95199.47;5032316;28;20198;-84
2023/09/15 10:49:17;;;;;;;7.43;6.72;;;;;;;24.01;59.94;95176.66;5047721;28;20895;-85
2023/09/15 10:51:57;;;;;;;6.45;5.95;;;;;;;23.92;59.75;95138.81;5040025;28;20276;-85
2023/09/15 10:54:27;;;;;;;6.32;5.82;;;;;;;23.95;59.89;95158.53;5031773;28;20210;-84
2023/09/15 10:56:55;;;;;;;6.18;5.68;;;;;;;24.16;60.57;95202.09;5032652;28;20229;-84
2023/09/15 10:59:22;;;;;;;6.55;5.47;;;;;;;24.18;58.71;95133.44;5031987;28;20664;-84
2023/09/15 11:01:48;;;;;;;5.68;5.28;;;;;;;24.07;58.73;95095.84;5023840;28;20202;-84
2023/09/15 11:04:20;;;;;;;5.57;5.18;;;;;;;24.13;60.01;95176.31;5039159;28;20205;-84
2023/09/15 11:06:48;;;;;;;6.03;5.53;;;;;;;24.24;59.99;95175.25;5052000;28;20214;-85
2023/09/15 11:09:15;;;;;;;6.43;5.75;;;;;;;24.40;61.13;95207.53;5042412;28;20221;-84
2023/09/15 11:11:46;;;;;;;6.45;5.85;;;;;;;24.34;59.38;95132.28;5031777;28;20683;-84
2023/09/15 11:14:16;;;;;;;6.68;6.18;;;;;;;24.17;58.98;95101.06;5031702;28;20194;-84
2023/09/15 11:16:48;;;;;;;7.40;6.78;;;;;;;24.15;59.88;95163.69;5031476;28;20221;-84
2023/09/15 11:19:15;;;;;;;7.72;6.65;;;;;;;24.20;60.44;95179.44;5029850;28;20272;-85
2023/09/15 11:21:42;;;;;;;6.80;6.30;;;;;;;24.14;60.85;95172.63;5050840;28;20202;-83
2023/09/15 11:24:10;;;;;;;6.30;5.80;;;;;;;24.30;61.44;95229.41;5050897;28;20206;-84